sensor_id;sensor_type;location;lat;lon;timestamp;pressure;altitude;pressure_sealevel;temperature
13497;BMP180;6820;49.374;8.452;2023-03-09T00:02:03;98081.53;;;16.05
13497;BMP180;6820;49.374;8.452;2023-03-09T00:06:06;98051.75;;;16.09
13497;BMP180;6820;49.374;8.452;2023-03-09T00:10:10;98039.81;;;16.06
13497;BMP180;6820;49.374;8.452;2023-03-09T00:14:13;98027.03;;;16.09
13497;BMP180;6820;49.374;8.452;2023-03-09T00:18:18;98028.72;;;16.07
13497;BMP180;6820;49.374;8.452;2023-03-09T00:22:20;98027.03;;;16.02
13497;BMP180;6820;49.374;8.452;2023-03-09T00:26:22;98029.56;;;15.99
13497;BMP180;6820;49.374;8.452;2023-03-09T00:30:23;98041.47;;;15.95
13497;BMP180;6820;49.374;8.452;2023-03-09T00:34:25;98049.97;;;15.87
13497;BMP180;6820;49.374;8.452;2023-03-09T00:38:27;98053.34;;;15.82
13497;BMP180;6820;49.374;8.452;2023-03-09T00:42:28;98083.13;;;15.77
13497;BMP180;6820;49.374;8.452;2023-03-09T00:46:30;98094.19;;;15.77
13497;BMP180;6820;49.374;8.452;2023-03-09T00:50:34;98107.84;;;15.86
13497;BMP180;6820;49.374;8.452;2023-03-09T00:54:35;98095.13;;;15.94
13497;BMP180;6820;49.374;8.452;2023-03-09T00:58:37;98098.53;;;15.97
13497;BMP180;6820;49.374;8.452;2023-03-09T01:02:39;98113.00;;;16.01
13497;BMP180;6820;49.374;8.452;2023-03-09T01:06:41;98119.84;;;16.07
13497;BMP180;6820;49.374;8.452;2023-03-09T01:10:43;98122.41;;;16.10
13497;BMP180;6820;49.374;8.452;2023-03-09T01:14:45;98114.75;;;16.10
13497;BMP180;6820;49.374;8.452;2023-03-09T01:18:46;98123.25;;;16.09
13497;BMP180;6820;49.374;8.452;2023-03-09T01:22:48;98106.28;;;16.14
13497;BMP180;6820;49.374;8.452;2023-03-09T01:26:49;98104.59;;;16.17
13497;BMP180;6820;49.374;8.452;2023-03-09T01:30:51;98108.84;;;16.22
13497;BMP180;6820;49.374;8.452;2023-03-09T01:34:53;98106.34;;;16.30
13497;BMP180;6820;49.374;8.452;2023-03-09T01:38:54;98109.75;;;16.36
13497;BMP180;6820;49.374;8.452;2023-03-09T01:43:01;98114.03;;;16.43
13497;BMP180;6820;49.374;8.452;2023-03-09T01:47:03;98114.06;;;16.45
13497;BMP180;6820;49.374;8.452;2023-03-09T01:51:04;98111.47;;;16.43
13497;BMP180;6820;49.374;8.452;2023-03-09T01:55:10;98108.94;;;16.45
13497;BMP180;6820;49.374;8.452;2023-03-09T01:59:13;98115.72;;;16.47
13497;BMP180;6820;49.374;8.452;2023-03-09T02:03:20;98109.78;;;16.46
13497;BMP180;6820;49.374;8.452;2023-03-09T02:07:24;98108.91;;;16.46
13497;BMP180;6820;49.374;8.452;2023-03-09T02:11:27;98119.16;;;16.46
13497;BMP180;6820;49.374;8.452;2023-03-09T02:15:29;98132.78;;;16.42
13497;BMP180;6820;49.374;8.452;2023-03-09T02:24:05;98136.19;;;16.37
13497;BMP180;6820;49.374;8.452;2023-03-09T02:28:09;98174.47;;;16.34
13497;BMP180;6820;49.374;8.452;2023-03-09T02:32:11;98206.81;;;16.27
13497;BMP180;6820;49.374;8.452;2023-03-09T02:36:12;98188.09;;;16.30
13497;BMP180;6820;49.374;8.452;2023-03-09T02:44:28;98219.63;;;16.26
13497;BMP180;6820;49.374;8.452;2023-03-09T02:48:32;98223.03;;;16.26
13497;BMP180;6820;49.374;8.452;2023-03-09T02:52:33;98231.50;;;16.22
13497;BMP180;6820;49.374;8.452;2023-03-09T02:56:35;98234.06;;;16.24
13497;BMP180;6820;49.374;8.452;2023-03-09T03:00:37;98251.13;;;16.23
13497;BMP180;6820;49.374;8.452;2023-03-09T03:04:39;98257.91;;;16.24
13497;BMP180;6820;49.374;8.452;2023-03-09T03:08:41;98285.19;;;16.24
13497;BMP180;6820;49.374;8.452;2023-03-09T03:12:45;98307.31;;;16.22
13497;BMP180;6820;49.374;8.452;2023-03-09T03:16:47;98307.31;;;16.23
13497;BMP180;6820;49.374;8.452;2023-03-09T03:20:50;98335.41;;;16.22
13497;BMP180;6820;49.374;8.452;2023-03-09T03:24:52;98344.78;;;16.23
13497;BMP180;6820;49.374;8.452;2023-03-09T03:28:54;98357.56;;;16.24
13497;BMP180;6820;49.374;8.452;2023-03-09T03:33:00;98363.56;;;16.28
13497;BMP180;6820;49.374;8.452;2023-03-09T03:37:05;98372.13;;;16.31
13497;BMP180;6820;49.374;8.452;2023-03-09T03:41:09;98367.88;;;16.35
13497;BMP180;6820;49.374;8.452;2023-03-09T03:45:13;98383.22;;;16.39
13497;BMP180;6820;49.374;8.452;2023-03-09T03:49:15;98402.84;;;16.40
13497;BMP180;6820;49.374;8.452;2023-03-09T03:53:17;98423.25;;;16.39
13497;BMP180;6820;49.374;8.452;2023-03-09T03:57:19;98436.03;;;16.39
13497;BMP180;6820;49.374;8.452;2023-03-09T04:01:25;98447.97;;;16.38
13497;BMP180;6820;49.374;8.452;2023-03-09T04:05:33;98449.66;;;16.35
13497;BMP180;6820;49.374;8.452;2023-03-09T04:09:36;98458.16;;;16.34
13497;BMP180;6820;49.374;8.452;2023-03-09T04:13:38;98470.06;;;16.32
13497;BMP180;6820;49.374;8.452;2023-03-09T04:17:40;98471.78;;;16.33
13497;BMP180;6820;49.374;8.452;2023-03-09T04:21:42;98483.75;;;16.37
13497;BMP180;6820;49.374;8.452;2023-03-09T04:26:00;98505.13;;;16.45
13497;BMP180;6820;49.374;8.452;2023-03-09T04:30:12;98517.09;;;16.50
13497;BMP180;6820;49.374;8.452;2023-03-09T04:34:14;98529.03;;;16.54
13497;BMP180;6820;49.374;8.452;2023-03-09T04:38:17;98540.13;;;16.54
13497;BMP180;6820;49.374;8.452;2023-03-09T04:42:21;98552.03;;;16.51
13497;BMP180;6820;49.374;8.452;2023-03-09T04:46:23;98555.41;;;16.48
13497;BMP180;6820;49.374;8.452;2023-03-09T04:50:29;98569.91;;;16.48
13497;BMP180;6820;49.374;8.452;2023-03-09T04:54:34;98570.78;;;16.51
13497;BMP180;6820;49.374;8.452;2023-03-09T04:58:37;98581.84;;;16.52
13497;BMP180;6820;49.374;8.452;2023-03-09T05:02:39;98580.22;;;16.55
13497;BMP180;6820;49.374;8.452;2023-03-09T05:06:41;98571.56;;;16.46
13497;BMP180;6820;49.374;8.452;2023-03-09T05:10:43;98581.72;;;16.39
13497;BMP180;6820;49.374;8.452;2023-03-09T05:14:45;98596.16;;;16.34
13497;BMP180;6820;49.374;8.452;2023-03-09T05:18:50;98596.09;;;16.26
13497;BMP180;6820;49.374;8.452;2023-03-09T05:22:55;98599.44;;;16.22
13497;BMP180;6820;49.374;8.452;2023-03-09T05:26:58;98615.63;;;16.21
13497;BMP180;6820;49.374;8.452;2023-03-09T05:31:12;98631.00;;;16.24
13497;BMP180;6820;49.374;8.452;2023-03-09T05:35:19;98625.94;;;16.30
13497;BMP180;6820;49.374;8.452;2023-03-09T05:39:21;98617.41;;;16.28
13497;BMP180;6820;49.374;8.452;2023-03-09T05:43:23;98636.16;;;16.30
13497;BMP180;6820;49.374;8.452;2023-03-09T05:47:26;98634.56;;;16.38
13497;BMP180;6820;49.374;8.452;2023-03-09T05:51:28;98644.84;;;16.44
13497;BMP180;6820;49.374;8.452;2023-03-09T05:55:31;98653.41;;;16.47
13497;BMP180;6820;49.374;8.452;2023-03-09T05:59:33;98654.28;;;16.52
13497;BMP180;6820;49.374;8.452;2023-03-09T06:03:35;98656.91;;;16.57
13497;BMP180;6820;49.374;8.452;2023-03-09T06:07:36;98667.16;;;16.60
13497;BMP180;6820;49.374;8.452;2023-03-09T06:11:38;98671.44;;;16.62
13497;BMP180;6820;49.374;8.452;2023-03-09T06:15:41;98684.25;;;16.65
13497;BMP180;6820;49.374;8.452;2023-03-09T06:19:47;98682.34;;;16.46
13497;BMP180;6820;49.374;8.452;2023-03-09T06:23:54;98680.63;;;16.44
13497;BMP180;6820;49.374;8.452;2023-03-09T06:27:57;98696.00;;;16.46
13497;BMP180;6820;49.374;8.452;2023-03-09T06:32:01;98695.09;;;16.42
13497;BMP180;6820;49.374;8.452;2023-03-09T06:36:06;98703.59;;;16.40
13497;BMP180;6820;49.374;8.452;2023-03-09T06:40:09;98700.13;;;16.35
13497;BMP180;6820;49.374;8.452;2023-03-09T06:44:13;98699.19;;;16.28
13497;BMP180;6820;49.374;8.452;2023-03-09T06:48:18;98724.69;;;16.25
13497;BMP180;6820;49.374;8.452;2023-03-09T06:52:21;98723.94;;;16.34
13497;BMP180;6820;49.374;8.452;2023-03-09T06:56:23;98731.72;;;16.40
13497;BMP180;6820;49.374;8.452;2023-03-09T07:00:25;98746.22;;;16.44
13497;BMP180;6820;49.374;8.452;2023-03-09T07:04:31;98762.47;;;16.47
13497;BMP180;6820;49.374;8.452;2023-03-09T07:08:33;98749.72;;;16.48
13497;BMP180;6820;49.374;8.452;2023-03-09T07:12:34;98762.47;;;16.47
13497;BMP180;6820;49.374;8.452;2023-03-09T07:16:36;98772.78;;;16.53
13497;BMP180;6820;49.374;8.452;2023-03-09T07:20:39;98772.81;;;16.56
13497;BMP180;6820;49.374;8.452;2023-03-09T07:24:41;98787.28;;;16.54
13497;BMP180;6820;49.374;8.452;2023-03-09T07:28:42;98789.03;;;16.58
13497;BMP180;6820;49.374;8.452;2023-03-09T07:32:44;98798.53;;;16.68
13497;BMP180;6820;49.374;8.452;2023-03-09T07:36:46;98799.47;;;16.74
13497;BMP180;6820;49.374;8.452;2023-03-09T07:40:48;98803.94;;;16.93
13497;BMP180;6820;49.374;8.452;2023-03-09T07:44:50;98810.03;;;17.04
13497;BMP180;6820;49.374;8.452;2023-03-09T07:48:52;98822.88;;;17.08
13497;BMP180;6820;49.374;8.452;2023-03-09T07:52:56;98836.47;;;17.04
13497;BMP180;6820;49.374;8.452;2023-03-09T07:56:59;98841.56;;;17.01
13497;BMP180;6820;49.374;8.452;2023-03-09T08:01:01;98848.31;;;16.96
13497;BMP180;6820;49.374;8.452;2023-03-09T08:05:05;98842.31;;;16.94
13497;BMP180;6820;49.374;8.452;2023-03-09T08:09:11;98862.88;;;17.02
13497;BMP180;6820;49.374;8.452;2023-03-09T08:13:13;98876.47;;;16.98
13497;BMP180;6820;49.374;8.452;2023-03-09T08:17:15;98875.56;;;16.91
13497;BMP180;6820;49.374;8.452;2023-03-09T08:21:17;98839.03;;;17.04
13497;BMP180;6820;49.374;8.452;2023-03-09T08:25:18;98864.47;;;16.92
13497;BMP180;6820;49.374;8.452;2023-03-09T08:29:20;98879.84;;;16.94
13497;BMP180;6820;49.374;8.452;2023-03-09T08:33:22;98891.19;;;17.13
13497;BMP180;6820;49.374;8.452;2023-03-09T08:37:23;98906.75;;;17.30
13497;BMP180;6820;49.374;8.452;2023-03-09T08:41:25;98900.00;;;17.36
13497;BMP180;6820;49.374;8.452;2023-03-09T08:45:27;98904.41;;;17.46
13497;BMP180;6820;49.374;8.452;2023-03-09T08:49:29;98917.25;;;17.53
13497;BMP180;6820;49.374;8.452;2023-03-09T08:53:31;98932.66;;;17.55
13497;BMP180;6820;49.374;8.452;2023-03-09T08:57:32;98941.94;;;17.47
13497;BMP180;6820;49.374;8.452;2023-03-09T09:01:34;98941.00;;;17.39
13497;BMP180;6820;49.374;8.452;2023-03-09T09:05:36;98926.63;;;17.50
13497;BMP180;6820;49.374;8.452;2023-03-09T09:09:38;98935.41;;;17.74
13497;BMP180;6820;49.374;8.452;2023-03-09T09:13:40;98948.47;;;18.00
13497;BMP180;6820;49.374;8.452;2023-03-09T09:17:42;98952.88;;;18.12
13497;BMP180;6820;49.374;8.452;2023-03-09T09:21:44;98952.88;;;18.07
13497;BMP180;6820;49.374;8.452;2023-03-09T09:25:53;98969.22;;;18.21
13497;BMP180;6820;49.374;8.452;2023-03-09T09:29:55;98959.75;;;18.14
13497;BMP180;6820;49.374;8.452;2023-03-09T09:33:57;98971.81;;;18.24
13497;BMP180;6820;49.374;8.452;2023-03-09T09:37:59;98969.44;;;18.45
13497;BMP180;6820;49.374;8.452;2023-03-09T09:42:05;98972.00;;;18.52
13497;BMP180;6820;49.374;8.452;2023-03-09T09:46:14;98977.13;;;18.49
13497;BMP180;6820;49.374;8.452;2023-03-09T09:50:16;98990.84;;;18.54
13497;BMP180;6820;49.374;8.452;2023-03-09T09:54:24;99002.84;;;18.57
13497;BMP180;6820;49.374;8.452;2023-03-09T09:58:35;99000.25;;;18.54
13497;BMP180;6820;49.374;8.452;2023-03-09T10:07:15;99011.53;;;18.76
13497;BMP180;6820;49.374;8.452;2023-03-09T10:15:29;99021.25;;;19.11
13497;BMP180;6820;49.374;8.452;2023-03-09T10:19:34;99024.66;;;19.09
13497;BMP180;6820;49.374;8.452;2023-03-09T10:23:36;99035.78;;;19.12
13497;BMP180;6820;49.374;8.452;2023-03-09T10:27:43;99017.88;;;19.24
13497;BMP180;6820;49.374;8.452;2023-03-09T10:31:51;99027.38;;;19.40
13497;BMP180;6820;49.374;8.452;2023-03-09T10:36:05;99036.88;;;19.61
13497;BMP180;6820;49.374;8.452;2023-03-09T10:40:17;99047.22;;;19.67
13497;BMP180;6820;49.374;8.452;2023-03-09T10:44:20;99053.22;;;19.68
13497;BMP180;6820;49.374;8.452;2023-03-09T10:48:25;99045.50;;;19.68
13497;BMP180;6820;49.374;8.452;2023-03-09T10:52:26;99051.53;;;19.77
13497;BMP180;6820;49.374;8.452;2023-03-09T10:56:30;99052.44;;;19.88
13497;BMP180;6820;49.374;8.452;2023-03-09T11:00:31;99043.09;;;20.05
13497;BMP180;6820;49.374;8.452;2023-03-09T11:04:37;99082.53;;;20.14
13497;BMP180;6820;49.374;8.452;2023-03-09T11:08:52;99069.63;;;20.04
13497;BMP180;6820;49.374;8.452;2023-03-09T11:13:18;99080.81;;;20.09
13497;BMP180;6820;49.374;8.452;2023-03-09T11:21:36;99071.28;;;19.75
13497;BMP180;6820;49.374;8.452;2023-03-09T11:30:27;99086.69;;;19.83
13497;BMP180;6820;49.374;8.452;2023-03-09T11:34:33;99073.03;;;19.89
13497;BMP180;6820;49.374;8.452;2023-03-09T11:38:35;99079.91;;;19.98
13497;BMP180;6820;49.374;8.452;2023-03-09T11:46:52;99072.25;;;20.20
13497;BMP180;6820;49.374;8.452;2023-03-09T11:51:00;99079.22;;;20.58
13497;BMP180;6820;49.374;8.452;2023-03-09T11:55:10;99072.34;;;20.94
13497;BMP180;6820;49.374;8.452;2023-03-09T12:03:25;99068.91;;;21.17
13497;BMP180;6820;49.374;8.452;2023-03-09T12:07:55;99063.72;;;21.23
13497;BMP180;6820;49.374;8.452;2023-03-09T12:16:41;99055.16;;;21.00
13497;BMP180;6820;49.374;8.452;2023-03-09T12:20:53;99052.63;;;21.03
13497;BMP180;6820;49.374;8.452;2023-03-09T12:24:58;99063.75;;;21.20
13497;BMP180;6820;49.374;8.452;2023-03-09T12:33:14;99063.72;;;21.18
13497;BMP180;6820;49.374;8.452;2023-03-09T12:54:57;99053.50;;;20.77
13497;BMP180;6820;49.374;8.452;2023-03-09T12:59:07;99041.44;;;20.86
13497;BMP180;6820;49.374;8.452;2023-03-09T13:03:17;99038.03;;;20.86
13497;BMP180;6820;49.374;8.452;2023-03-09T13:07:19;99033.66;;;21.19
13497;BMP180;6820;49.374;8.452;2023-03-09T13:15:27;99029.34;;;21.52
13497;BMP180;6820;49.374;8.452;2023-03-09T13:23:36;99018.06;;;21.70
13497;BMP180;6820;49.374;8.452;2023-03-09T13:27:38;99033.59;;;21.56
13497;BMP180;6820;49.374;8.452;2023-03-09T13:31:41;99035.31;;;21.51
13497;BMP180;6820;49.374;8.452;2023-03-09T13:35:52;99034.53;;;21.34
13497;BMP180;6820;49.374;8.452;2023-03-09T13:40:04;99026.00;;;21.08
13497;BMP180;6820;49.374;8.452;2023-03-09T13:44:13;99037.16;;;21.06
13497;BMP180;6820;49.374;8.452;2023-03-09T13:48:16;99038.00;;;21.17
13497;BMP180;6820;49.374;8.452;2023-03-09T13:52:17;99031.13;;;21.11
13497;BMP180;6820;49.374;8.452;2023-03-09T13:56:20;99032.81;;;21.26
13497;BMP180;6820;49.374;8.452;2023-03-09T14:00:23;99017.31;;;21.32
13497;BMP180;6820;49.374;8.452;2023-03-09T14:04:26;99019.06;;;21.27
13497;BMP180;6820;49.374;8.452;2023-03-09T14:08:50;99013.94;;;21.19
13497;BMP180;6820;49.374;8.452;2023-03-09T14:13:05;99017.41;;;21.07
13497;BMP180;6820;49.374;8.452;2023-03-09T14:17:16;99013.97;;;21.06
13497;BMP180;6820;49.374;8.452;2023-03-09T14:33:30;98993.88;;;21.91
13497;BMP180;6820;49.374;8.452;2023-03-09T14:37:33;98989.50;;;22.13
13497;BMP180;6820;49.374;8.452;2023-03-09T14:41:36;98986.94;;;22.10
13497;BMP180;6820;49.374;8.452;2023-03-09T14:45:37;98986.94;;;22.07
13497;BMP180;6820;49.374;8.452;2023-03-09T14:49:39;98984.38;;;21.98
13497;BMP180;6820;49.374;8.452;2023-03-09T14:53:54;98993.06;;;21.84
13497;BMP180;6820;49.374;8.452;2023-03-09T14:57:56;98981.06;;;21.82
13497;BMP180;6820;49.374;8.452;2023-03-09T15:02:01;98981.94;;;21.81
13497;BMP180;6820;49.374;8.452;2023-03-09T15:06:06;98976.81;;;21.72
13497;BMP180;6820;49.374;8.452;2023-03-09T15:10:08;98977.72;;;21.65
13497;BMP180;6820;49.374;8.452;2023-03-09T15:14:15;98976.88;;;21.62
13497;BMP180;6820;49.374;8.452;2023-03-09T15:18:19;98963.91;;;21.72
13497;BMP180;6820;49.374;8.452;2023-03-09T15:22:21;98964.72;;;21.80
13497;BMP180;6820;49.374;8.452;2023-03-09T15:26:22;98965.66;;;21.70
13497;BMP180;6820;49.374;8.452;2023-03-09T15:30:24;98962.16;;;21.80
13497;BMP180;6820;49.374;8.452;2023-03-09T15:34:25;98953.47;;;21.94
13497;BMP180;6820;49.374;8.452;2023-03-09T15:38:27;98944.69;;;22.25
13497;BMP180;6820;49.374;8.452;2023-03-09T15:42:32;98936.09;;;22.24
13497;BMP180;6820;49.374;8.452;2023-03-09T15:46:34;98920.56;;;22.26
13497;BMP180;6820;49.374;8.452;2023-03-09T15:50:35;98930.06;;;22.22
13497;BMP180;6820;49.374;8.452;2023-03-09T15:54:39;98921.53;;;22.14
13497;BMP180;6820;49.374;8.452;2023-03-09T15:58:41;98920.75;;;22.02
13497;BMP180;6820;49.374;8.452;2023-03-09T16:02:43;98914.75;;;21.98
13497;BMP180;6820;49.374;8.452;2023-03-09T16:06:44;98915.63;;;21.93
13497;BMP180;6820;49.374;8.452;2023-03-09T16:10:47;98909.66;;;21.91
13497;BMP180;6820;49.374;8.452;2023-03-09T16:14:48;98908.03;;;21.75
13497;BMP180;6820;49.374;8.452;2023-03-09T16:18:50;98917.53;;;21.66
13497;BMP180;6820;49.374;8.452;2023-03-09T16:22:55;98909.03;;;21.52
13497;BMP180;6820;49.374;8.452;2023-03-09T16:26:56;98903.13;;;21.28
13497;BMP180;6820;49.374;8.452;2023-03-09T16:30:58;98910.09;;;21.04
13497;BMP180;6820;49.374;8.452;2023-03-09T16:35:05;98912.72;;;20.88
13497;BMP180;6820;49.374;8.452;2023-03-09T16:39:07;98902.47;;;20.72
13497;BMP180;6820;49.374;8.452;2023-03-09T16:43:09;98913.63;;;20.57
13497;BMP180;6820;49.374;8.452;2023-03-09T16:47:10;98902.47;;;20.48
13497;BMP180;6820;49.374;8.452;2023-03-09T16:51:15;98907.63;;;20.42
13497;BMP180;6820;49.374;8.452;2023-03-09T16:55:20;98905.06;;;20.41
13497;BMP180;6820;49.374;8.452;2023-03-09T16:59:26;98899.91;;;20.35
13497;BMP180;6820;49.374;8.452;2023-03-09T17:03:27;98904.19;;;20.28
13497;BMP180;6820;49.374;8.452;2023-03-09T17:07:29;98898.22;;;20.20
13497;BMP180;6820;49.374;8.452;2023-03-09T17:11:33;98895.66;;;20.13
13497;BMP180;6820;49.374;8.452;2023-03-09T17:15:36;98891.34;;;19.99
13497;BMP180;6820;49.374;8.452;2023-03-09T17:19:38;98883.63;;;19.84
13497;BMP180;6820;49.374;8.452;2023-03-09T17:23:40;98886.22;;;19.75
13497;BMP180;6820;49.374;8.452;2023-03-09T17:27:42;98884.44;;;19.68
13497;BMP180;6820;49.374;8.452;2023-03-09T17:31:44;98889.56;;;19.59
13497;BMP180;6820;49.374;8.452;2023-03-09T17:35:45;98881.84;;;19.49
13497;BMP180;6820;49.374;8.452;2023-03-09T17:39:47;98874.97;;;19.44
13497;BMP180;6820;49.374;8.452;2023-03-09T17:43:49;98875.81;;;19.40
13497;BMP180;6820;49.374;8.452;2023-03-09T17:47:51;98865.53;;;19.37
13497;BMP180;6820;49.374;8.452;2023-03-09T17:51:53;98868.94;;;19.34
13497;BMP180;6820;49.374;8.452;2023-03-09T17:55:56;98868.09;;;19.31
13497;BMP180;6820;49.374;8.452;2023-03-09T17:59:58;98873.19;;;19.23
13497;BMP180;6820;49.374;8.452;2023-03-09T18:03:59;98874.03;;;19.18
13497;BMP180;6820;49.374;8.452;2023-03-09T18:08:01;98861.19;;;19.12
13497;BMP180;6820;49.374;8.452;2023-03-09T18:12:04;98863.75;;;19.06
13497;BMP180;6820;49.374;8.452;2023-03-09T18:16:05;98866.25;;;18.96
13497;BMP180;6820;49.374;8.452;2023-03-09T18:20:08;98860.22;;;18.88
13497;BMP180;6820;49.374;8.452;2023-03-09T18:24:10;98852.47;;;18.84
13497;BMP180;6820;49.374;8.452;2023-03-09T18:28:11;98852.47;;;18.78
13497;BMP180;6820;49.374;8.452;2023-03-09T18:32:13;98845.63;;;18.74
13497;BMP180;6820;49.374;8.452;2023-03-09T18:36:15;98841.31;;;18.71
13497;BMP180;6820;49.374;8.452;2023-03-09T18:40:17;98844.72;;;18.69
13497;BMP180;6820;49.374;8.452;2023-03-09T18:44:19;98831.88;;;18.66
13497;BMP180;6820;49.374;8.452;2023-03-09T18:48:20;98821.59;;;18.64
13497;BMP180;6820;49.374;8.452;2023-03-09T18:52:22;98814.81;;;18.77
13497;BMP180;6820;49.374;8.452;2023-03-09T18:56:24;98802.88;;;18.85
13497;BMP180;6820;49.374;8.452;2023-03-09T19:00:26;98796.09;;;18.95
13497;BMP180;6820;49.374;8.452;2023-03-09T19:04:27;98783.25;;;19.03
13497;BMP180;6820;49.374;8.452;2023-03-09T19:08:29;98773.88;;;19.05
13497;BMP180;6820;49.374;8.452;2023-03-09T19:12:30;98770.44;;;18.98
13497;BMP180;6820;49.374;8.452;2023-03-09T19:16:33;98765.28;;;18.94
13497;BMP180;6820;49.374;8.452;2023-03-09T19:20:34;98754.13;;;18.86
13497;BMP180;6820;49.374;8.452;2023-03-09T19:24:36;98759.22;;;18.79
13497;BMP180;6820;49.374;8.452;2023-03-09T19:28:38;98765.19;;;18.72
13497;BMP180;6820;49.374;8.452;2023-03-09T19:32:39;98766.88;;;18.64
13497;BMP180;6820;49.374;8.452;2023-03-09T19:36:41;98759.19;;;18.61
13497;BMP180;6820;49.374;8.452;2023-03-09T19:40:43;98758.31;;;18.61
13497;BMP180;6820;49.374;8.452;2023-03-09T19:44:45;98759.16;;;18.57
13497;BMP180;6820;49.374;8.452;2023-03-09T19:48:48;98750.56;;;18.49
13497;BMP180;6820;49.374;8.452;2023-03-09T19:52:49;98742.84;;;18.43
13497;BMP180;6820;49.374;8.452;2023-03-09T19:56:51;98736.88;;;18.45
13497;BMP180;6820;49.374;8.452;2023-03-09T20:00:53;98728.31;;;18.46
13497;BMP180;6820;49.374;8.452;2023-03-09T20:04:55;98730.06;;;18.47
13497;BMP180;6820;49.374;8.452;2023-03-09T20:08:58;98711.22;;;18.50
13497;BMP180;6820;49.374;8.452;2023-03-09T20:12:59;98709.50;;;18.46
13497;BMP180;6820;49.374;8.452;2023-03-09T20:17:01;98709.50;;;18.41
13497;BMP180;6820;49.374;8.452;2023-03-09T20:21:06;98705.25;;;18.45
13497;BMP180;6820;49.374;8.452;2023-03-09T20:25:09;98703.53;;;18.45
13497;BMP180;6820;49.374;8.452;2023-03-09T20:29:10;98703.53;;;18.48
13497;BMP180;6820;49.374;8.452;2023-03-09T20:33:12;98704.41;;;18.47
13497;BMP180;6820;49.374;8.452;2023-03-09T20:37:14;98699.25;;;18.44
13497;BMP180;6820;49.374;8.452;2023-03-09T20:41:17;98693.28;;;18.42
13497;BMP180;6820;49.374;8.452;2023-03-09T20:45:19;98690.69;;;18.36
13497;BMP180;6820;49.374;8.452;2023-03-09T20:49:21;98678.69;;;18.35
13497;BMP180;6820;49.374;8.452;2023-03-09T20:53:24;98670.16;;;18.38
13497;BMP180;6820;49.374;8.452;2023-03-09T20:57:27;98661.63;;;18.39
13497;BMP180;6820;49.374;8.452;2023-03-09T21:01:28;98660.75;;;18.30
13497;BMP180;6820;49.374;8.452;2023-03-09T21:05:31;98665.84;;;18.21
13497;BMP180;6820;49.374;8.452;2023-03-09T21:09:32;98656.44;;;18.18
13497;BMP180;6820;49.374;8.452;2023-03-09T21:13:35;98653.00;;;18.18
13497;BMP180;6820;49.374;8.452;2023-03-09T21:17:37;98639.31;;;18.20
13497;BMP180;6820;49.374;8.452;2023-03-09T21:21:38;98630.78;;;18.17
13497;BMP180;6820;49.374;8.452;2023-03-09T21:25:40;98629.06;;;18.14
13497;BMP180;6820;49.374;8.452;2023-03-09T21:29:43;98621.38;;;18.11
13497;BMP180;6820;49.374;8.452;2023-03-09T21:33:44;98614.53;;;18.10
13497;BMP180;6820;49.374;8.452;2023-03-09T21:37:46;98607.69;;;18.08
13497;BMP180;6820;49.374;8.452;2023-03-09T21:41:48;98594.00;;;18.06
13497;BMP180;6820;49.374;8.452;2023-03-09T21:45:50;98582.06;;;18.05
13497;BMP180;6820;49.374;8.452;2023-03-09T21:49:52;98588.00;;;18.04
13497;BMP180;6820;49.374;8.452;2023-03-09T21:53:54;98586.31;;;18.06
13497;BMP180;6820;49.374;8.452;2023-03-09T21:57:56;98611.13;;;18.10
13497;BMP180;6820;49.374;8.452;2023-03-09T22:01:59;98583.78;;;18.10
13497;BMP180;6820;49.374;8.452;2023-03-09T22:06:00;98576.94;;;18.11
13497;BMP180;6820;49.374;8.452;2023-03-09T22:10:03;98561.56;;;18.14
13497;BMP180;6820;49.374;8.452;2023-03-09T22:14:05;98567.53;;;18.14
13497;BMP180;6820;49.374;8.452;2023-03-09T22:18:07;98570.09;;;18.17
13497;BMP180;6820;49.374;8.452;2023-03-09T22:22:09;98570.13;;;18.22
13497;BMP180;6820;49.374;8.452;2023-03-09T22:26:11;98559.91;;;18.29
13497;BMP180;6820;49.374;8.452;2023-03-09T22:30:14;98548.78;;;18.33
13497;BMP180;6820;49.374;8.452;2023-03-09T22:34:16;98550.50;;;18.34
13497;BMP180;6820;49.374;8.452;2023-03-09T22:38:18;98535.97;;;18.37
13497;BMP180;6820;49.374;8.452;2023-03-09T22:42:20;98544.50;;;18.41
13497;BMP180;6820;49.374;8.452;2023-03-09T22:46:23;98535.97;;;18.39
13497;BMP180;6820;49.374;8.452;2023-03-09T22:50:25;98522.28;;;18.38
13497;BMP180;6820;49.374;8.452;2023-03-09T22:54:27;98519.72;;;18.41
13497;BMP180;6820;49.374;8.452;2023-03-09T22:58:28;98517.19;;;18.43
13497;BMP180;6820;49.374;8.452;2023-03-09T23:02:33;98515.47;;;18.40
13497;BMP180;6820;49.374;8.452;2023-03-09T23:06:36;98515.47;;;18.42
13497;BMP180;6820;49.374;8.452;2023-03-09T23:10:44;98517.19;;;18.46
13497;BMP180;6820;49.374;8.452;2023-03-09T23:14:50;98526.56;;;18.50
13497;BMP180;6820;49.374;8.452;2023-03-09T23:18:53;98514.63;;;18.53
13497;BMP180;6820;49.374;8.452;2023-03-09T23:22:55;98492.41;;;18.55
13497;BMP180;6820;49.374;8.452;2023-03-09T23:26:56;98471.88;;;18.54
13497;BMP180;6820;49.374;8.452;2023-03-09T23:30:58;98470.16;;;18.53
13497;BMP180;6820;49.374;8.452;2023-03-09T23:35:00;98496.66;;;18.52
13497;BMP180;6820;49.374;8.452;2023-03-09T23:39:02;98479.56;;;18.49
13497;BMP180;6820;49.374;8.452;2023-03-09T23:43:03;98478.72;;;18.47
13497;BMP180;6820;49.374;8.452;2023-03-09T23:47:05;98469.28;;;18.46
13497;BMP180;6820;49.374;8.452;2023-03-09T23:51:08;98462.47;;;18.48
13497;BMP180;6820;49.374;8.452;2023-03-09T23:55:10;98462.44;;;18.50
13497;BMP180;6820;49.374;8.452;2023-03-09T23:59:12;98459.03;;;18.49
